Chang Sheng — V3PK — position and weather

sailwx.info

Track history (hours):
 
Tides and Currents Weather Stations Pressure Air Temp Water Temp Dewpoint Dewpoint Depression Visibility Wind Speed Wind Dir Waves Ship Positions

Chang Sheng

Last reported at 2017-Apr-29 09:16 UTC. Time now 2017-Apr-30 16:43 UTC.
Position N 38°24' E 121°15'.

Length 86 m; draft 5.4 m.

Type: Cargo ship. MMSI: 312161000.

Date/timePositionNaut miles runAvg speedWind from/ knotsBaromVisibWave heightAir tempDewpointWater temp
2017-Apr-29 09:16N 38°24' E 121°15'2 9.2
2017-Apr-29 09:00N 38°25' E 121°12'4 8.9
2017-Apr-29 08:30N 38°27' E 121°07'4 8.2
2017-Apr-29 08:01N 38°29' E 121°03'4 7.6
2017-Apr-29 07:30N 38°31' E 120°58'4 7.3
2017-Apr-29 07:00N 38°33' E 120°55'40 8.0
2017-Apr-29 02:00N 39°13' E 120°54'  
2017-Apr-26 07:57N 38°13' E 121°60'4 9.3
2017-Apr-26 07:30N 38°12' E 122°05'9 9.3
2017-Apr-26 06:29N 38°09' E 122°16'5 9.3
2017-Apr-26 06:00N 38°07' E 122°22'5 9.1
2017-Apr-26 05:28N 38°06' E 122°28'4 9.0
2017-Apr-26 04:59N 38°04' E 122°33'10 9.0
2017-Apr-26 03:54N 37°59' E 122°44'7 9.0
2017-Apr-26 03:10N 37°56' E 122°51'6 9.2
2017-Apr-26 02:28N 37°53' E 122°58'4 9.4
2017-Apr-26 02:00N 37°51' E 123°03'5 9.7
2017-Apr-26 01:30N 37°49' E 123°09'510.1
2017-Apr-26 01:00N 37°47' E 123°14'510.3
2017-Apr-26 00:30N 37°44' E 123°20'510.4
2017-Apr-26 00:00N 37°42' E 123°26'510.6
2017-Apr-25 23:30N 37°40' E 123°32'610.9
2017-Apr-25 22:57N 37°38' E 123°39'510.8
2017-Apr-25 22:28N 37°37' E 123°46'  
Track history (hours):
 
Tides and Currents Weather Stations Pressure Air Temp Water Temp Dewpoint Dewpoint Depression Visibility Wind Speed Wind Dir Waves Ship Positions

Chang Sheng

Last reported at 2017-Apr-29 09:16 UTC. Time now 2017-Apr-30 16:43 UTC.
Position N 38°24' E 121°15'.

Length 86 m; draft 5.4 m.

Type: Cargo ship. MMSI: 312161000.

Date/timePositionNaut miles runAvg speedWind from/ knotsBaromVisibWave heightAir tempDewpointWater temp
2017-Apr-29 09:16N 38°24' E 121°15'2 9.2
2017-Apr-29 09:00N 38°25' E 121°12'4 8.9
2017-Apr-29 08:30N 38°27' E 121°07'4 8.2
2017-Apr-29 08:01N 38°29' E 121°03'4 7.6
2017-Apr-29 07:30N 38°31' E 120°58'4 7.3
2017-Apr-29 07:00N 38°33' E 120°55'40 8.0
2017-Apr-29 02:00N 39°13' E 120°54'  
2017-Apr-26 07:57N 38°13' E 121°60'4 9.3
2017-Apr-26 07:30N 38°12' E 122°05'9 9.3
2017-Apr-26 06:29N 38°09' E 122°16'5 9.3
2017-Apr-26 06:00N 38°07' E 122°22'5 9.1
2017-Apr-26 05:28N 38°06' E 122°28'4 9.0
2017-Apr-26 04:59N 38°04' E 122°33'10 9.0
2017-Apr-26 03:54N 37°59' E 122°44'7 9.0
2017-Apr-26 03:10N 37°56' E 122°51'6 9.2
2017-Apr-26 02:28N 37°53' E 122°58'4 9.4
2017-Apr-26 02:00N 37°51' E 123°03'5 9.7
2017-Apr-26 01:30N 37°49' E 123°09'510.1
2017-Apr-26 01:00N 37°47' E 123°14'510.3
2017-Apr-26 00:30N 37°44' E 123°20'510.4
2017-Apr-26 00:00N 37°42' E 123°26'510.6
2017-Apr-25 23:30N 37°40' E 123°32'610.9
2017-Apr-25 22:57N 37°38' E 123°39'510.8
2017-Apr-25 22:28N 37°37' E 123°46'  

Dump ship's entire track history